createdAt,value
2017-10-06T00:00:58.455Z,80.30
2017-10-06T00:01:58.476Z,80.58
2017-10-06T00:02:58.492Z,81.15
2017-10-06T00:03:58.514Z,80.77
2017-10-06T00:04:58.531Z,81.25
2017-10-06T00:05:58.548Z,81.35
2017-10-06T00:06:58.570Z,81.44
2017-10-06T00:07:58.585Z,81.54
2017-10-06T00:08:58.601Z,81.63
2017-10-06T00:09:58.620Z,81.97
2017-10-06T00:10:58.638Z,81.82
2017-10-06T00:11:58.660Z,81.54
2017-10-06T00:12:58.675Z,81.35
2017-10-06T00:13:58.693Z,80.96
2017-10-06T00:14:58.712Z,81.06
2017-10-06T00:15:58.729Z,81.44
2017-10-06T00:16:58.749Z,81.54
2017-10-06T00:17:58.765Z,81.44
2017-10-06T00:18:58.784Z,81.35
2017-10-06T00:19:58.804Z,81.25
2017-10-06T00:20:58.819Z,80.58
2017-10-06T00:21:58.839Z,80.77
2017-10-06T00:22:58.858Z,80.96
2017-10-06T00:23:58.876Z,80.87
2017-10-06T00:24:58.893Z,81.44
2017-10-06T00:25:58.918Z,81.25
2017-10-06T00:26:58.929Z,81.35
2017-10-06T00:27:58.950Z,81.06
2017-10-06T00:28:58.967Z,80.77
2017-10-06T00:29:58.987Z,80.58
2017-10-06T00:30:59.002Z,81.15
2017-10-06T00:31:59.026Z,82.01
2017-10-06T00:32:59.041Z,81.78
2017-10-06T00:33:59.057Z,81.82
2017-10-06T00:34:59.075Z,81.63
2017-10-06T00:35:59.095Z,81.59
2017-10-06T00:36:59.112Z,81.82
2017-10-06T00:37:59.129Z,81.15
2017-10-06T00:38:59.152Z,81.25
2017-10-06T00:39:59.168Z,81.25
2017-10-06T00:40:59.185Z,81.44
2017-10-06T00:41:59.201Z,81.15
2017-10-06T00:42:59.222Z,81.35
2017-10-06T00:43:59.242Z,81.35
2017-10-06T00:44:59.257Z,81.82
2017-10-06T00:45:59.277Z,82.20
2017-10-06T00:46:59.292Z,82.30
2017-10-06T00:47:59.313Z,81.63
2017-10-06T00:48:59.328Z,82.59
2017-10-06T00:49:59.348Z,82.01
2017-10-06T00:50:59.367Z,81.82
2017-10-06T00:51:59.387Z,82.78
2017-10-06T00:52:59.402Z,82.07
2017-10-06T00:53:59.420Z,82.20
2017-10-06T00:54:59.460Z,82.40
2017-10-06T00:55:59.456Z,82.68
2017-10-06T00:56:59.476Z,82.49
2017-10-06T00:57:59.493Z,82.54
2017-10-06T00:58:59.511Z,82.59
2017-10-06T00:59:59.531Z,82.07
2017-10-06T01:00:59.550Z,82.11
2017-10-06T01:01:59.562Z,82.17
2017-10-06T01:02:59.583Z,82.20
2017-10-06T01:03:59.603Z,81.92
2017-10-06T01:04:59.617Z,82.20
2017-10-06T01:05:59.638Z,82.59
2017-10-06T01:06:59.659Z,81.73
2017-10-06T01:07:59.674Z,81.54
2017-10-06T01:08:59.694Z,81.54
2017-10-06T01:09:59.712Z,81.54
2017-10-06T01:10:59.731Z,81.88
2017-10-06T01:11:59.746Z,82.11
2017-10-06T01:12:59.766Z,82.17
2017-10-06T01:13:59.784Z,82.17
2017-10-06T01:14:59.805Z,82.07
2017-10-06T01:15:59.823Z,82.07
2017-10-06T01:16:59.842Z,82.17
2017-10-06T01:17:59.854Z,82.17
2017-10-06T01:18:59.881Z,82.54
2017-10-06T01:19:59.891Z,82.35
2017-10-06T01:20:59.910Z,82.01
2017-10-06T01:21:59.929Z,81.97
2017-10-06T01:22:59.946Z,81.92
2017-10-06T01:23:59.964Z,81.97
2017-10-06T01:24:59.982Z,81.21
2017-10-06T01:26:00.003Z,81.68
2017-10-06T01:27:00.019Z,82.26
2017-10-06T01:28:00.040Z,82.35
2017-10-06T01:29:00.053Z,82.07
2017-10-06T01:30:00.073Z,82.26
2017-10-06T01:31:00.093Z,81.78
2017-10-06T01:32:00.112Z,81.63
2017-10-06T01:33:00.127Z,81.25
2017-10-06T01:34:00.147Z,82.07
2017-10-06T01:35:00.164Z,82.17
2017-10-06T01:36:00.182Z,82.26
2017-10-06T01:37:00.199Z,82.35
2017-10-06T01:38:00.219Z,82.17
2017-10-06T01:39:00.237Z,82.01
2017-10-06T01:40:00.254Z,81.54
2017-10-06T01:41:00.281Z,81.35
2017-10-06T01:42:00.293Z,80.49
2017-10-06T01:43:00.312Z,80.96
2017-10-06T01:44:00.328Z,80.87
2017-10-06T01:45:00.345Z,80.58
2017-10-06T01:46:00.362Z,80.20
2017-10-06T01:47:00.379Z,80.58
2017-10-06T01:48:00.399Z,80.96
2017-10-06T01:49:00.416Z,81.15
2017-10-06T01:50:00.436Z,80.68
2017-10-06T01:51:00.456Z,80.58
2017-10-06T01:52:00.486Z,81.40
2017-10-06T01:53:00.490Z,82.11
2017-10-06T01:54:00.514Z,81.35
2017-10-06T01:55:00.526Z,81.06
2017-10-06T01:56:00.546Z,81.06
2017-10-06T01:57:00.564Z,81.15
2017-10-06T01:58:00.582Z,80.68
2017-10-06T01:59:00.596Z,81.35
2017-10-06T02:00:00.615Z,81.78
2017-10-06T02:01:00.633Z,81.82
2017-10-06T02:02:00.654Z,81.82
2017-10-06T02:03:00.671Z,81.35
2017-10-06T02:04:00.689Z,81.63
2017-10-06T02:05:00.705Z,81.97
2017-10-06T02:06:00.725Z,81.82
2017-10-06T02:07:00.743Z,81.73
2017-10-06T02:08:00.763Z,81.35
2017-10-06T02:09:00.781Z,81.06
2017-10-06T02:10:00.799Z,81.15
2017-10-06T02:11:00.816Z,81.15
2017-10-06T02:12:00.834Z,80.87
2017-10-06T02:13:00.849Z,81.15
2017-10-06T02:14:00.876Z,81.49
2017-10-06T02:15:00.888Z,81.35
2017-10-06T02:16:00.909Z,81.59
2017-10-06T02:17:00.923Z,81.92
2017-10-06T02:18:00.943Z,81.02
2017-10-06T02:19:00.962Z,81.40
2017-10-06T02:20:00.977Z,81.97
2017-10-06T02:21:00.997Z,81.35
2017-10-06T02:22:01.013Z,81.35
2017-10-06T02:23:01.035Z,81.54
2017-10-06T02:24:01.055Z,81.54
2017-10-06T02:25:01.081Z,80.96
2017-10-06T02:26:01.088Z,81.73
2017-10-06T02:27:01.107Z,81.35
2017-10-06T02:28:01.129Z,81.35
2017-10-06T02:29:01.141Z,80.77
2017-10-06T02:30:01.160Z,81.06
2017-10-06T02:31:01.186Z,81.06
2017-10-06T02:32:01.198Z,81.15
2017-10-06T02:33:01.213Z,80.77
2017-10-06T02:34:01.232Z,80.77
2017-10-06T02:35:01.265Z,81.25
2017-10-06T02:36:01.271Z,81.82
2017-10-06T02:37:01.288Z,81.25
2017-10-06T02:38:01.303Z,80.77
2017-10-06T02:39:01.327Z,80.87
2017-10-06T02:40:01.341Z,80.39
2017-10-06T02:41:01.360Z,80.30
2017-10-06T02:42:01.376Z,80.87
2017-10-06T02:43:01.396Z,81.35
2017-10-06T02:44:01.416Z,80.96
2017-10-06T02:45:01.435Z,81.35
2017-10-06T02:46:01.450Z,81.82
2017-10-06T02:47:01.471Z,81.68
2017-10-06T02:48:01.486Z,81.82
2017-10-06T02:49:01.539Z,81.49
2017-10-06T02:50:01.524Z,81.82
2017-10-06T02:51:01.541Z,81.82
2017-10-06T02:52:01.561Z,81.92
2017-10-06T02:53:01.577Z,81.25
2017-10-06T02:54:01.597Z,81.25
2017-10-06T02:55:01.612Z,81.82
2017-10-06T02:56:01.632Z,81.63
2017-10-06T02:57:01.650Z,82.20
2017-10-06T02:58:01.670Z,81.63
2017-10-06T02:59:01.686Z,81.78
2017-10-06T03:00:01.706Z,81.68
2017-10-06T03:01:01.727Z,82.01
2017-10-06T03:02:01.746Z,81.92
2017-10-06T03:03:01.760Z,81.63
2017-10-06T03:04:01.777Z,81.15
2017-10-06T03:05:01.796Z,81.25
2017-10-06T03:06:01.812Z,81.25
2017-10-06T03:07:01.831Z,81.54
2017-10-06T03:08:01.851Z,81.44
2017-10-06T03:09:01.871Z,81.35
2017-10-06T03:10:01.892Z,81.15
2017-10-06T03:11:01.902Z,82.07
2017-10-06T03:12:01.925Z,82.26
2017-10-06T03:13:01.940Z,81.35
2017-10-06T03:14:01.961Z,81.25
2017-10-06T03:15:01.978Z,80.58
2017-10-06T03:16:01.996Z,80.77
2017-10-06T03:17:02.012Z,80.39
2017-10-06T03:18:02.032Z,80.77
2017-10-06T03:19:02.049Z,80.96
2017-10-06T03:20:02.069Z,80.96
2017-10-06T03:21:02.091Z,80.96
2017-10-06T03:22:02.105Z,80.68
2017-10-06T03:23:02.124Z,80.87
2017-10-06T03:24:02.140Z,81.68
2017-10-06T03:25:02.158Z,81.49
2017-10-06T03:26:02.176Z,81.44
2017-10-06T03:27:02.195Z,81.88
2017-10-06T03:28:02.212Z,81.73
2017-10-06T03:29:02.234Z,82.01
2017-10-06T03:30:02.252Z,81.25
2017-10-06T03:31:02.275Z,81.82
2017-10-06T03:32:02.284Z,81.15
2017-10-06T03:33:02.303Z,80.58
2017-10-06T03:34:02.320Z,81.59
2017-10-06T03:35:02.341Z,81.35
2017-10-06T03:36:02.359Z,81.21
2017-10-06T03:37:02.377Z,82.17
2017-10-06T03:38:02.394Z,82.26
2017-10-06T03:39:02.414Z,81.63
2017-10-06T03:40:02.436Z,81.63
2017-10-06T03:41:02.455Z,81.15
2017-10-06T03:42:02.465Z,80.77
2017-10-06T03:43:02.484Z,80.58
2017-10-06T03:44:02.503Z,81.44
2017-10-06T03:45:02.527Z,81.35
2017-10-06T03:46:02.543Z,81.06
2017-10-06T03:47:02.560Z,81.40
2017-10-06T03:48:02.577Z,81.68
2017-10-06T03:49:02.595Z,81.68
2017-10-06T03:50:02.621Z,81.25
2017-10-06T03:51:02.639Z,81.35
2017-10-06T03:52:02.647Z,80.49
2017-10-06T03:53:02.665Z,80.49
2017-10-06T03:54:02.684Z,80.68
2017-10-06T03:55:02.705Z,81.35
2017-10-06T03:56:02.720Z,81.06
2017-10-06T03:57:02.738Z,81.35
2017-10-06T03:58:02.763Z,81.35
2017-10-06T03:59:02.780Z,81.30
2017-10-06T04:00:02.797Z,81.40
2017-10-06T04:01:02.812Z,82.07
2017-10-06T04:02:02.832Z,82.20
2017-10-06T04:03:02.848Z,81.35
2017-10-06T04:04:02.867Z,81.78
2017-10-06T04:05:02.887Z,81.35
2017-10-06T04:06:02.901Z,81.44
2017-10-06T04:07:02.922Z,81.21
2017-10-06T04:08:02.939Z,81.88
2017-10-06T04:09:02.955Z,81.59
2017-10-06T04:10:02.978Z,82.35
2017-10-06T04:11:02.995Z,82.45
2017-10-06T04:12:03.011Z,82.45
2017-10-06T04:13:03.031Z,82.26
2017-10-06T04:14:03.048Z,82.45
2017-10-06T04:15:03.065Z,82.35
2017-10-06T04:16:03.084Z,82.17
2017-10-06T04:17:03.103Z,83.21
2017-10-06T04:18:03.119Z,83.12
2017-10-06T04:19:03.138Z,82.17
2017-10-06T04:20:03.156Z,82.64
2017-10-06T04:21:03.173Z,82.45
2017-10-06T04:22:03.199Z,82.35
2017-10-06T04:23:03.209Z,81.97
2017-10-06T04:24:03.231Z,81.97
2017-10-06T04:25:03.247Z,81.63
2017-10-06T04:26:03.265Z,81.15
2017-10-06T04:27:03.287Z,81.25
2017-10-06T04:28:03.300Z,81.12
2017-10-06T04:29:03.319Z,81.30
2017-10-06T04:30:03.335Z,82.07
2017-10-06T04:31:03.356Z,82.26
2017-10-06T04:32:03.377Z,81.97
2017-10-06T04:33:03.394Z,82.54
2017-10-06T04:34:03.410Z,82.35
2017-10-06T04:35:03.426Z,82.26
2017-10-06T04:36:03.447Z,82.17
2017-10-06T04:37:03.461Z,81.59
2017-10-06T04:38:03.486Z,81.68
2017-10-06T04:39:03.499Z,81.78
2017-10-06T04:40:03.517Z,82.35
2017-10-06T04:41:03.536Z,82.07
2017-10-06T04:42:03.550Z,81.97
2017-10-06T04:43:03.574Z,82.26
2017-10-06T04:44:03.589Z,82.26
2017-10-06T04:45:03.607Z,82.07
2017-10-06T04:46:03.629Z,82.26
2017-10-06T04:47:03.644Z,82.35
2017-10-06T04:48:03.662Z,82.35
2017-10-06T04:49:03.680Z,82.35
2017-10-06T04:50:03.696Z,81.88
2017-10-06T04:51:03.714Z,82.54
2017-10-06T04:52:03.733Z,82.26
2017-10-06T04:53:03.750Z,82.07
2017-10-06T04:54:03.768Z,81.92
2017-10-06T04:55:03.787Z,81.68
2017-10-06T04:56:03.806Z,81.78
2017-10-06T04:57:03.821Z,81.88
2017-10-06T04:58:03.840Z,81.82
2017-10-06T04:59:03.858Z,81.30
2017-10-06T05:00:03.878Z,81.68
2017-10-06T05:01:03.891Z,82.26
2017-10-06T05:02:03.925Z,82.54
2017-10-06T05:03:03.958Z,82.73
2017-10-06T05:04:03.951Z,82.45
2017-10-06T05:05:03.967Z,82.35
2017-10-06T05:06:03.984Z,81.78
2017-10-06T05:07:04.003Z,81.97
2017-10-06T05:08:04.021Z,82.45
2017-10-06T05:09:04.040Z,81.73
2017-10-06T05:10:04.057Z,81.68
2017-10-06T05:11:04.079Z,81.97
2017-10-06T05:12:04.096Z,81.68
2017-10-06T05:13:04.111Z,81.68
2017-10-06T05:14:04.130Z,81.97
2017-10-06T05:15:04.146Z,82.35
2017-10-06T05:16:04.165Z,82.07
2017-10-06T05:17:04.186Z,82.26
2017-10-06T05:18:04.202Z,82.73
2017-10-06T05:19:04.219Z,82.07
2017-10-06T05:20:04.240Z,82.26
2017-10-06T05:21:04.257Z,81.97
2017-10-06T05:22:04.272Z,82.17
2017-10-06T05:23:04.298Z,82.26
2017-10-06T05:24:04.310Z,82.83
2017-10-06T05:25:04.328Z,82.83
2017-10-06T05:26:04.346Z,82.64
2017-10-06T05:27:04.364Z,82.35
2017-10-06T05:28:04.382Z,82.17
2017-10-06T05:29:04.401Z,82.30
2017-10-06T05:30:04.418Z,82.35
2017-10-06T05:31:04.436Z,82.17
2017-10-06T05:32:04.456Z,82.35
2017-10-06T05:33:04.474Z,82.73
2017-10-06T05:34:04.491Z,82.45
2017-10-06T05:35:04.507Z,82.83
2017-10-06T05:36:04.537Z,83.21
2017-10-06T05:37:04.543Z,83.31
2017-10-06T05:38:04.563Z,82.73
2017-10-06T05:39:04.581Z,82.68
2017-10-06T05:40:04.605Z,83.21
2017-10-06T05:41:04.616Z,82.97
2017-10-06T05:42:04.634Z,83.25
2017-10-06T05:43:04.653Z,82.59
2017-10-06T05:44:04.670Z,83.02
2017-10-06T05:45:04.692Z,83.40
2017-10-06T05:46:04.708Z,83.16
2017-10-06T05:47:04.727Z,82.78
2017-10-06T05:48:04.743Z,84.07
2017-10-06T05:49:04.762Z,84.45
2017-10-06T05:50:04.794Z,84.55
2017-10-06T05:51:04.797Z,84.45
2017-10-06T05:52:04.815Z,84.07
2017-10-06T05:53:04.833Z,84.45
2017-10-06T05:54:04.851Z,85.31
2017-10-06T05:55:04.869Z,85.12
2017-10-06T05:56:04.887Z,84.74
2017-10-06T05:57:04.905Z,84.83
2017-10-06T05:58:04.924Z,85.02
2017-10-06T05:59:04.943Z,85.21
2017-10-06T06:00:04.964Z,84.74
2017-10-06T06:01:04.976Z,85.12
2017-10-06T06:02:04.995Z,84.55
2017-10-06T06:03:05.012Z,84.83
2017-10-06T06:04:05.032Z,85.12
2017-10-06T06:05:05.049Z,85.02
2017-10-06T06:06:05.051Z,84.83
2017-10-06T06:07:05.065Z,84.74
2017-10-06T06:08:05.085Z,84.26
2017-10-06T06:09:05.103Z,85.31
2017-10-06T06:10:05.123Z,84.92
2017-10-06T06:11:05.159Z,84.45
2017-10-06T06:12:05.177Z,84.45
2017-10-06T06:13:05.193Z,83.69
2017-10-06T06:14:05.212Z,83.31
2017-10-06T06:15:05.229Z,83.02
2017-10-06T06:16:05.249Z,83.12
2017-10-06T06:17:05.266Z,83.02
2017-10-06T06:18:05.285Z,83.88
2017-10-06T06:19:05.306Z,83.97
2017-10-06T06:20:05.318Z,83.40
2017-10-06T06:21:05.342Z,83.50
2017-10-06T06:22:05.354Z,83.12
2017-10-06T06:23:05.378Z,83.40
2017-10-06T06:24:05.394Z,82.92
2017-10-06T06:25:05.410Z,83.31
2017-10-06T06:26:05.428Z,83.59
2017-10-06T06:27:05.446Z,83.40
2017-10-06T06:28:05.465Z,83.50
2017-10-06T06:29:05.481Z,82.83
2017-10-06T06:30:05.499Z,83.02
2017-10-06T06:31:05.519Z,83.59
2017-10-06T06:32:05.535Z,83.78
2017-10-06T06:33:05.554Z,83.25
2017-10-06T06:34:05.572Z,82.49
2017-10-06T06:35:05.589Z,82.11
2017-10-06T06:36:05.608Z,82.11
2017-10-06T06:37:05.630Z,81.92
2017-10-06T06:38:05.646Z,82.20
2017-10-06T06:39:05.662Z,82.26
2017-10-06T06:40:05.681Z,83.12
2017-10-06T06:41:05.719Z,83.06
2017-10-06T06:42:05.715Z,82.68
2017-10-06T06:43:05.737Z,82.30
2017-10-06T06:44:05.753Z,82.17
2017-10-06T06:45:05.770Z,82.40
2017-10-06T06:46:05.788Z,82.26
2017-10-06T06:47:05.808Z,82.26
2017-10-06T06:48:05.826Z,82.49
2017-10-06T06:49:05.844Z,82.07
2017-10-06T06:50:05.860Z,82.83
2017-10-06T06:51:05.885Z,82.45
2017-10-06T06:52:05.900Z,82.01
2017-10-06T06:53:05.914Z,81.82
2017-10-06T06:54:05.933Z,81.82
2017-10-06T06:55:05.952Z,81.06
2017-10-06T06:56:05.971Z,81.73
2017-10-06T06:57:05.990Z,81.44
2017-10-06T06:58:06.009Z,81.06
2017-10-06T06:59:06.027Z,80.58
2017-10-06T07:00:06.045Z,80.30
2017-10-06T07:01:06.065Z,79.77
2017-10-06T07:02:06.080Z,79.57
2017-10-06T07:03:06.099Z,79.82
2017-10-06T07:04:06.117Z,80.33
2017-10-06T07:05:06.138Z,79.96
2017-10-06T07:06:06.156Z,79.67
2017-10-06T07:07:06.172Z,80.39
2017-10-06T07:08:06.193Z,79.82
2017-10-06T07:09:06.214Z,80.53
2017-10-06T07:10:06.230Z,81.01
2017-10-06T07:11:06.247Z,80.96
2017-10-06T07:12:06.249Z,80.58
2017-10-06T07:13:06.266Z,81.25
2017-10-06T07:14:06.282Z,81.15
2017-10-06T07:15:06.303Z,80.39
2017-10-06T07:16:06.321Z,81.06
2017-10-06T07:17:06.357Z,80.81
2017-10-06T07:18:06.378Z,80.62
2017-10-06T07:19:06.395Z,80.43
2017-10-06T07:20:06.413Z,79.77
2017-10-06T07:21:06.432Z,79.57
2017-10-06T07:22:06.452Z,80.15
2017-10-06T07:23:06.469Z,80.05
2017-10-06T07:24:06.489Z,80.15
2017-10-06T07:25:06.508Z,79.48
2017-10-06T07:26:06.523Z,79.48
2017-10-06T07:27:06.548Z,79.00
2017-10-06T07:28:06.560Z,79.38
2017-10-06T07:29:06.580Z,79.96
2017-10-06T07:30:06.600Z,79.67
2017-10-06T07:31:06.617Z,80.05
2017-10-06T07:32:06.637Z,78.85
2017-10-06T07:33:06.658Z,78.28
2017-10-06T07:34:06.683Z,78.66
2017-10-06T07:35:06.697Z,77.99
2017-10-06T07:36:06.713Z,78.37
2017-10-06T07:37:06.733Z,78.66
2017-10-06T07:38:06.751Z,77.70
2017-10-06T07:39:06.773Z,78.09
2017-10-06T07:40:06.788Z,76.84
2017-10-06T07:41:06.807Z,78.13
2017-10-06T07:42:06.829Z,77.45
2017-10-06T07:43:06.848Z,77.36
2017-10-06T07:44:06.867Z,77.13
2017-10-06T07:45:06.883Z,77.32
2017-10-06T07:46:06.901Z,77.51
2017-10-06T07:47:06.922Z,77.89
2017-10-06T07:48:06.943Z,77.89
2017-10-06T07:49:06.962Z,78.18
2017-10-06T07:50:06.980Z,77.76
2017-10-06T07:51:06.999Z,78.56
2017-10-06T07:52:07.021Z,78.37
2017-10-06T07:53:07.036Z,77.61
2017-10-06T07:54:07.056Z,78.75
2017-10-06T07:55:07.074Z,79.14
2017-10-06T07:56:07.096Z,79.38
2017-10-06T07:57:07.114Z,80.15
2017-10-06T07:58:07.136Z,79.71
2017-10-06T07:59:07.150Z,79.61
2017-10-06T08:00:07.170Z,79.90
2017-10-06T08:01:07.187Z,80.91
2017-10-06T08:02:07.221Z,80.53
2017-10-06T08:03:07.229Z,81.10
2017-10-06T08:04:07.245Z,80.09
2017-10-06T08:05:07.268Z,78.70
2017-10-06T08:06:07.308Z,78.22
2017-10-06T08:07:07.306Z,78.31
2017-10-06T08:08:07.322Z,77.94
2017-10-06T08:09:07.342Z,77.94
2017-10-06T08:10:07.362Z,78.41
2017-10-06T08:11:07.436Z,78.31
2017-10-06T08:12:07.401Z,78.03
2017-10-06T08:13:07.419Z,79.04
2017-10-06T08:14:07.438Z,80.33
2017-10-06T08:15:07.459Z,81.33
2017-10-06T08:16:07.479Z,81.48
2017-10-06T08:17:07.497Z,81.43
2017-10-06T08:18:07.514Z,80.22
2017-10-06T08:19:07.538Z,80.85
2017-10-06T08:20:07.555Z,80.76
2017-10-06T08:21:07.573Z,80.90
2017-10-06T08:22:07.593Z,80.85
2017-10-06T08:23:07.613Z,81.04
2017-10-06T08:24:07.632Z,80.76
2017-10-06T08:25:07.648Z,81.24
2017-10-06T08:26:07.668Z,80.95
2017-10-06T08:27:07.689Z,80.85
2017-10-06T08:28:07.706Z,80.28
2017-10-06T08:29:07.726Z,80.38
2017-10-06T08:30:07.745Z,79.99
2017-10-06T08:31:07.766Z,80.85
2017-10-06T08:32:07.788Z,80.76
2017-10-06T08:33:07.804Z,80.95
2017-10-06T08:34:07.821Z,80.38
2017-10-06T08:35:07.841Z,79.43
2017-10-06T08:36:07.859Z,79.80
2017-10-06T08:37:07.878Z,80.38
2017-10-06T08:38:07.897Z,81.24
2017-10-06T08:39:07.915Z,82.06
2017-10-06T08:40:07.943Z,81.67
2017-10-06T08:41:07.960Z,81.14
2017-10-06T08:42:07.972Z,80.66
2017-10-06T08:43:07.991Z,80.66
2017-10-06T08:44:08.012Z,80.47
2017-10-06T08:45:08.029Z,80.85
2017-10-06T08:46:08.052Z,81.24
2017-10-06T08:47:08.066Z,81.14
2017-10-06T08:48:08.086Z,81.96
2017-10-06T08:49:08.106Z,82.24
2017-10-06T08:50:08.124Z,82.15
2017-10-06T08:51:08.143Z,82.72
2017-10-06T08:52:08.161Z,82.43
2017-10-06T08:53:08.185Z,82.34
2017-10-06T08:54:08.200Z,82.63
2017-10-06T08:55:08.227Z,81.62
2017-10-06T08:56:08.242Z,82.29
2017-10-06T08:57:08.257Z,81.86
2017-10-06T08:58:08.275Z,83.39
2017-10-06T08:59:08.293Z,82.86
2017-10-06T09:00:08.310Z,82.15
2017-10-06T09:01:08.329Z,82.72
2017-10-06T09:02:08.350Z,83.58
2017-10-06T09:03:08.369Z,83.01
2017-10-06T09:04:08.387Z,82.48
2017-10-06T09:05:08.407Z,82.19
2017-10-06T09:06:08.422Z,82.29
2017-10-06T09:07:08.446Z,81.90
2017-10-06T09:08:08.463Z,81.04
2017-10-06T09:09:08.482Z,81.62
2017-10-06T09:10:08.500Z,81.71
2017-10-06T09:11:08.520Z,81.71
2017-10-06T09:12:08.538Z,80.99
2017-10-06T09:13:08.557Z,79.94
2017-10-06T09:14:08.581Z,80.66
2017-10-06T09:15:08.597Z,81.18
2017-10-06T09:16:08.615Z,80.22
2017-10-06T09:17:08.632Z,78.70
2017-10-06T09:18:08.652Z,79.56
2017-10-06T09:19:08.681Z,80.22
2017-10-06T09:20:08.689Z,79.65
2017-10-06T09:21:08.710Z,78.41
2017-10-06T09:22:08.728Z,78.99
2017-10-06T09:23:08.749Z,78.47
2017-10-06T09:24:08.769Z,79.46
2017-10-06T09:25:08.785Z,79.27
2017-10-06T09:26:08.804Z,78.99
2017-10-06T09:27:08.826Z,79.17
2017-10-06T09:28:08.841Z,79.56
2017-10-06T09:29:08.862Z,79.56
2017-10-06T09:30:08.881Z,80.51
2017-10-06T09:31:08.902Z,80.04
2017-10-06T09:32:08.924Z,80.74
2017-10-06T09:33:08.942Z,79.79
2017-10-06T09:34:08.956Z,78.64
2017-10-06T09:35:08.981Z,78.16
2017-10-06T09:36:09.003Z,78.55
2017-10-06T09:37:09.018Z,78.93
2017-10-06T09:38:09.037Z,78.30
2017-10-06T09:39:09.057Z,78.11
2017-10-06T09:40:09.085Z,77.44
2017-10-06T09:41:09.094Z,76.00
2017-10-06T09:42:09.114Z,76.20
2017-10-06T09:43:09.141Z,76.82
2017-10-06T09:44:09.153Z,77.30
2017-10-06T09:45:09.175Z,77.65
2017-10-06T09:46:09.195Z,78.26
2017-10-06T09:47:09.211Z,78.16
2017-10-06T09:48:09.234Z,77.65
2017-10-06T09:49:09.252Z,78.03
2017-10-06T09:50:09.273Z,77.30
2017-10-06T09:51:09.296Z,76.45
2017-10-06T09:52:09.312Z,77.11
2017-10-06T09:53:09.332Z,77.50
2017-10-06T09:54:09.356Z,76.16
2017-10-06T09:55:09.374Z,76.16
2017-10-06T09:56:09.391Z,76.29
2017-10-06T09:57:09.409Z,76.10
2017-10-06T09:58:09.429Z,75.18
2017-10-06T09:59:09.459Z,74.48
2017-10-06T10:00:09.474Z,75.59
2017-10-06T10:01:09.489Z,76.39
2017-10-06T10:02:09.509Z,76.29
2017-10-06T10:03:09.527Z,75.91
2017-10-06T10:04:09.550Z,76.06
2017-10-06T10:05:09.570Z,75.20
2017-10-06T10:06:09.589Z,74.48
2017-10-06T10:07:09.608Z,73.14
2017-10-06T10:08:09.629Z,72.60
2017-10-06T10:09:09.746Z,73.23
2017-10-06T10:10:09.668Z,74.57
2017-10-06T10:11:09.685Z,76.00
2017-10-06T10:12:09.711Z,74.61
2017-10-06T10:13:09.726Z,73.08
2017-10-06T10:14:09.751Z,71.42
2017-10-06T10:15:09.767Z,70.50
2017-10-06T10:16:09.805Z,70.53
2017-10-06T10:17:09.805Z,71.11
2017-10-06T10:18:09.824Z,70.59
2017-10-06T10:19:09.847Z,70.72
2017-10-06T10:20:09.866Z,70.34
2017-10-06T10:21:09.887Z,69.95
2017-10-06T10:22:09.904Z,71.07
2017-10-06T10:23:09.925Z,69.44
2017-10-06T10:24:09.945Z,70.43
2017-10-06T10:25:09.965Z,69.76
2017-10-06T10:26:09.989Z,69.32
2017-10-06T10:27:10.007Z,70.53
2017-10-06T10:28:10.027Z,69.76
2017-10-06T10:29:10.047Z,69.89
2017-10-06T10:30:10.068Z,69.76
2017-10-06T10:31:10.088Z,69.73
2017-10-06T10:32:10.111Z,70.36
2017-10-06T10:33:10.142Z,70.01
2017-10-06T10:34:10.152Z,68.96
2017-10-06T10:35:10.169Z,68.90
2017-10-06T10:36:10.192Z,68.62
2017-10-06T10:37:10.216Z,68.33
2017-10-06T10:38:10.232Z,70.59
2017-10-06T10:39:10.252Z,71.16
2017-10-06T10:40:10.271Z,72.12
2017-10-06T10:41:10.292Z,71.64
2017-10-06T10:42:10.312Z,72.18
2017-10-06T10:43:10.333Z,74.24
2017-10-06T10:44:10.359Z,74.57
2017-10-06T10:45:10.372Z,73.08
2017-10-06T10:46:10.391Z,71.93
2017-10-06T10:47:10.412Z,72.22
2017-10-06T10:48:10.439Z,71.64
2017-10-06T10:49:10.454Z,71.48
2017-10-06T10:50:10.476Z,71.01
2017-10-06T10:51:10.496Z,71.39
2017-10-06T10:52:10.516Z,72.18
2017-10-06T10:53:10.538Z,72.98
2017-10-06T10:54:10.551Z,73.52
2017-10-06T10:55:10.576Z,74.09
2017-10-06T10:56:10.596Z,73.23
2017-10-06T10:57:10.619Z,73.67
2017-10-06T10:58:10.635Z,75.20
2017-10-06T10:59:10.661Z,75.68
2017-10-06T11:00:10.677Z,75.05
2017-10-06T11:01:10.694Z,75.14
2017-10-06T11:02:10.715Z,75.14
2017-10-06T11:03:10.734Z,74.38
2017-10-06T11:04:10.754Z,75.87
2017-10-06T11:05:10.774Z,77.45
2017-10-06T11:06:10.794Z,76.54
2017-10-06T11:07:10.813Z,76.25
2017-10-06T11:08:10.841Z,75.96
2017-10-06T11:09:10.853Z,75.96
2017-10-06T11:10:10.872Z,76.06
2017-10-06T11:11:10.894Z,77.59
2017-10-06T11:12:10.917Z,77.69
2017-10-06T11:13:10.934Z,76.54
2017-10-06T11:14:10.952Z,77.17
2017-10-06T11:15:10.970Z,77.69
2017-10-06T11:16:10.992Z,77.21
2017-10-06T11:17:11.009Z,76.64
2017-10-06T11:18:11.043Z,76.64
2017-10-06T11:19:11.050Z,76.54
2017-10-06T11:20:11.082Z,77.59
2017-10-06T11:21:11.088Z,77.65
2017-10-06T11:22:11.107Z,78.70
2017-10-06T11:23:11.129Z,78.70
2017-10-06T11:24:11.149Z,78.36
2017-10-06T11:25:11.165Z,78.64
2017-10-06T11:26:11.184Z,78.22
2017-10-06T11:27:11.205Z,78.60
2017-10-06T11:28:11.225Z,79.56
2017-10-06T11:29:11.242Z,80.41
2017-10-06T11:30:11.261Z,80.13
2017-10-06T11:31:11.278Z,80.04
2017-10-06T11:32:11.300Z,79.02
2017-10-06T11:33:11.320Z,79.22
2017-10-06T11:34:11.339Z,78.26
2017-10-06T11:35:11.357Z,77.01
2017-10-06T11:36:11.381Z,78.89
2017-10-06T11:37:11.400Z,79.08
2017-10-06T11:38:11.418Z,79.02
2017-10-06T11:39:11.435Z,78.45
2017-10-06T11:40:11.456Z,77.87
2017-10-06T11:41:11.473Z,78.36
2017-10-06T11:42:11.494Z,78.26
2017-10-06T11:43:11.512Z,77.87
2017-10-06T11:44:11.533Z,78.45
2017-10-06T11:45:11.558Z,79.27
2017-10-06T11:46:11.572Z,80.32
2017-10-06T11:47:11.596Z,80.61
2017-10-06T11:48:11.612Z,79.69
2017-10-06T11:49:11.646Z,79.12
2017-10-06T11:50:11.649Z,78.83
2017-10-06T11:51:11.668Z,78.45
2017-10-06T11:52:11.694Z,78.68
2017-10-06T11:53:11.709Z,78.16
2017-10-06T11:54:11.725Z,77.50
2017-10-06T11:55:11.747Z,78.30
2017-10-06T11:56:11.768Z,78.30
2017-10-06T11:57:11.786Z,78.49
2017-10-06T11:58:11.805Z,76.86
2017-10-06T11:59:11.824Z,77.34
2017-10-06T12:00:11.845Z,77.15
2017-10-06T12:01:11.864Z,76.42
2017-10-06T12:02:11.884Z,76.20
2017-10-06T12:03:11.903Z,75.62
2017-10-06T12:04:11.923Z,76.64
2017-10-06T12:05:11.946Z,77.44
2017-10-06T12:06:11.969Z,76.29
2017-10-06T12:07:11.981Z,76.04
2017-10-06T12:08:12.003Z,76.67
2017-10-06T12:09:12.018Z,75.56
2017-10-06T12:10:12.042Z,76.14
2017-10-06T12:11:12.062Z,77.06
2017-10-06T12:12:12.084Z,76.96
2017-10-06T12:13:12.103Z,77.06
2017-10-06T12:14:12.134Z,76.20
2017-10-06T12:15:12.143Z,76.20
2017-10-06T12:16:12.160Z,76.54
2017-10-06T12:17:12.181Z,77.69
2017-10-06T12:18:12.204Z,77.78
2017-10-06T12:19:12.218Z,77.72
2017-10-06T12:20:12.238Z,77.59
2017-10-06T12:21:12.257Z,77.59
2017-10-06T12:22:12.277Z,77.97
2017-10-06T12:23:12.305Z,78.45
2017-10-06T12:24:12.318Z,78.68
2017-10-06T12:25:12.338Z,78.45
2017-10-06T12:26:12.359Z,78.58
2017-10-06T12:27:12.378Z,78.30
2017-10-06T12:28:12.396Z,78.39
2017-10-06T12:29:12.414Z,77.95
2017-10-06T12:30:12.434Z,78.68
2017-10-06T12:31:12.454Z,79.16
2017-10-06T12:32:12.474Z,78.58
2017-10-06T12:33:12.493Z,78.97
2017-10-06T12:34:12.513Z,77.53
2017-10-06T12:35:12.536Z,78.30
2017-10-06T12:36:12.555Z,78.87
2017-10-06T12:37:12.576Z,78.97
2017-10-06T12:38:12.592Z,79.64
2017-10-06T12:39:12.613Z,77.82
2017-10-06T12:40:12.633Z,77.86
2017-10-06T12:41:12.650Z,77.38
2017-10-06T12:42:12.672Z,77.67
2017-10-06T12:43:12.693Z,76.77
2017-10-06T12:44:12.711Z,77.25
2017-10-06T12:45:12.733Z,77.57
2017-10-06T12:46:12.759Z,76.90
2017-10-06T12:47:12.771Z,77.57
2017-10-06T12:48:12.794Z,77.48
2017-10-06T12:49:12.811Z,77.09
2017-10-06T12:50:12.832Z,76.18
2017-10-06T12:51:12.852Z,75.02
2017-10-06T12:52:12.872Z,75.98
2017-10-06T12:53:12.892Z,74.87